createdAt,value
2023-10-23T00:01:54.898Z,100107.25
2023-10-23T00:04:22.708Z,100110.19
2023-10-23T00:06:50.584Z,100117.50
2023-10-23T00:09:18.212Z,100114.91
2023-10-23T00:11:45.747Z,100115.72
2023-10-23T00:14:14.628Z,100110.56
2023-10-23T00:16:42.321Z,100105.22
2023-10-23T00:19:09.899Z,100108.91
2023-10-23T00:21:37.429Z,100108.25
2023-10-23T00:24:05.589Z,100102.22
2023-10-23T00:26:33.090Z,100101.69
2023-10-23T00:29:01.873Z,100106.72
2023-10-23T00:31:30.737Z,100116.13
2023-10-23T00:33:58.286Z,100114.16
2023-10-23T00:36:26.158Z,100106.56
2023-10-23T00:38:53.774Z,100120.00
2023-10-23T00:41:21.315Z,100114.75
2023-10-23T00:43:48.821Z,100123.66
2023-10-23T00:46:20.184Z,100117.41
2023-10-23T00:48:49.475Z,100119.13
2023-10-23T00:51:18.233Z,100110.78
2023-10-23T00:53:46.005Z,100114.03
2023-10-23T00:56:13.984Z,100120.47
2023-10-23T00:58:43.574Z,100114.63
2023-10-23T01:01:13.487Z,100115.69
2023-10-23T01:03:41.665Z,100112.63
2023-10-23T01:06:11.480Z,100128.41
2023-10-23T01:08:39.316Z,100120.47
2023-10-23T01:11:07.140Z,100123.53
2023-10-23T01:13:34.670Z,100118.50
2023-10-23T01:16:02.179Z,100124.09
2023-10-23T01:18:29.788Z,100123.78
2023-10-23T01:20:57.455Z,100126.63
2023-10-23T01:23:29.905Z,100132.56
2023-10-23T01:25:58.742Z,100119.03
2023-10-23T01:28:26.245Z,100126.81
2023-10-23T01:30:53.872Z,100122.84
2023-10-23T01:33:21.742Z,100128.44
2023-10-23T01:35:49.237Z,100129.44
2023-10-23T01:38:17.579Z,100126.72
2023-10-23T01:40:45.081Z,100122.50
2023-10-23T01:43:14.053Z,100135.16
2023-10-23T01:45:41.699Z,100136.06
2023-10-23T01:48:09.306Z,100134.41
2023-10-23T01:50:39.453Z,100143.19
2023-10-23T01:53:08.619Z,100138.03
2023-10-23T01:55:36.453Z,100141.44
2023-10-23T01:58:04.138Z,100136.56
2023-10-23T02:00:33.301Z,100135.09
2023-10-23T02:03:01.299Z,100133.66
2023-10-23T02:05:28.964Z,100132.84
2023-10-23T02:07:56.523Z,100126.44
2023-10-23T02:10:24.264Z,100121.09
2023-10-23T02:12:51.859Z,100128.34
2023-10-23T02:15:19.468Z,100134.94
2023-10-23T02:17:48.426Z,100134.13
2023-10-23T02:20:16.129Z,100136.56
2023-10-23T02:22:43.623Z,100129.34
2023-10-23T02:25:11.350Z,100133.66
2023-10-23T02:27:38.889Z,100142.06
2023-10-23T02:30:08.360Z,100149.50
2023-10-23T02:32:35.949Z,100138.75
2023-10-23T02:35:05.312Z,100149.72
2023-10-23T02:37:33.070Z,100150.06
2023-10-23T02:40:00.893Z,100156.91
2023-10-23T02:42:28.494Z,100155.84
2023-10-23T02:44:56.254Z,100161.81
2023-10-23T02:47:23.753Z,100167.31
2023-10-23T02:49:51.276Z,100171.91
2023-10-23T02:52:20.203Z,100161.34
2023-10-23T02:54:47.751Z,100176.44
2023-10-23T02:57:15.279Z,100181.06
2023-10-23T02:59:47.774Z,100185.38
2023-10-23T03:02:15.823Z,100180.06
2023-10-23T03:04:43.392Z,100174.72
2023-10-23T03:07:10.931Z,100173.34
2023-10-23T03:09:39.946Z,100166.66
2023-10-23T03:12:07.883Z,100171.13
2023-10-23T03:14:35.418Z,100183.84
2023-10-23T03:17:02.951Z,100191.47
2023-10-23T03:19:30.503Z,100182.91
2023-10-23T03:21:58.622Z,100194.50
2023-10-23T03:24:26.480Z,100186.63
2023-10-23T03:26:55.333Z,100192.50
2023-10-23T03:29:22.941Z,100189.03
2023-10-23T03:31:50.472Z,100191.66
2023-10-23T03:34:18.007Z,100191.47
2023-10-23T03:36:46.198Z,100189.66
2023-10-23T03:39:13.738Z,100203.03
2023-10-23T03:41:41.253Z,100207.72
2023-10-23T03:44:10.198Z,100205.81
2023-10-23T03:46:37.706Z,100204.50
2023-10-23T03:49:05.386Z,100212.34
2023-10-23T03:51:32.900Z,100201.34
2023-10-23T03:54:01.025Z,100201.91
2023-10-23T03:56:28.542Z,100206.38
2023-10-23T03:58:56.106Z,100210.38
2023-10-23T04:01:24.968Z,100206.50
2023-10-23T04:03:52.564Z,100206.00
2023-10-23T04:06:20.165Z,100204.63
2023-10-23T04:08:47.704Z,100218.94
2023-10-23T04:11:15.896Z,100216.66
2023-10-23T04:13:43.509Z,100207.50
2023-10-23T04:16:11.467Z,100209.78
2023-10-23T04:18:40.577Z,100218.72
2023-10-23T04:21:09.302Z,100215.03
2023-10-23T04:23:38.012Z,100215.31
2023-10-23T04:26:05.856Z,100218.00
2023-10-23T04:28:34.118Z,100219.66
2023-10-23T04:31:01.752Z,100222.72
2023-10-23T04:33:29.463Z,100215.16
2023-10-23T04:35:59.378Z,100213.69
2023-10-23T04:38:27.398Z,100227.34
2023-10-23T04:40:55.271Z,100226.97
2023-10-23T04:43:23.445Z,100224.91
2023-10-23T04:45:54.067Z,100230.66
2023-10-23T04:48:22.143Z,100223.06
2023-10-23T04:50:49.893Z,100224.75
2023-10-23T04:53:20.549Z,100223.34
2023-10-23T04:55:48.141Z,100222.16
2023-10-23T04:58:15.825Z,100226.59
2023-10-23T05:00:45.445Z,100221.97
2023-10-23T05:03:13.128Z,100225.97
2023-10-23T05:05:47.554Z,100232.19
2023-10-23T05:08:15.135Z,100224.25
2023-10-23T05:10:44.196Z,100231.81
2023-10-23T05:13:11.718Z,100230.50
2023-10-23T05:15:39.245Z,100232.94
2023-10-23T05:18:06.937Z,100233.84
2023-10-23T05:20:35.772Z,100235.63
2023-10-23T05:23:04.197Z,100236.53
2023-10-23T05:25:31.757Z,100247.09
2023-10-23T05:28:00.767Z,100250.88
2023-10-23T05:30:28.741Z,100247.09
2023-10-23T05:32:56.330Z,100248.03
2023-10-23T05:35:23.886Z,100252.81
2023-10-23T05:37:51.413Z,100259.03
2023-10-23T05:40:18.935Z,100254.16
2023-10-23T05:42:46.465Z,100264.34
2023-10-23T05:45:15.513Z,100261.81
2023-10-23T05:47:43.060Z,100267.16
2023-10-23T05:50:11.177Z,100259.13
2023-10-23T05:52:38.673Z,100272.59
2023-10-23T05:55:09.402Z,100269.69
2023-10-23T05:57:37.046Z,100282.59
2023-10-23T06:00:05.618Z,100279.31
2023-10-23T06:02:34.448Z,100283.19
2023-10-23T06:05:02.065Z,100281.00
2023-10-23T06:07:31.148Z,100286.16
2023-10-23T06:10:00.586Z,100284.09
2023-10-23T06:12:28.222Z,100283.59
2023-10-23T06:14:55.868Z,100288.72
2023-10-23T06:17:23.505Z,100290.84
2023-10-23T06:19:52.405Z,100296.25
2023-10-23T06:22:19.954Z,100297.88
2023-10-23T06:24:47.558Z,100295.53
2023-10-23T06:27:15.120Z,100297.28
2023-10-23T06:29:42.622Z,100304.28
2023-10-23T06:32:10.152Z,100307.66
2023-10-23T06:34:37.661Z,100309.00
2023-10-23T06:37:06.600Z,100303.22
2023-10-23T06:39:34.620Z,100303.41
2023-10-23T06:42:02.184Z,100310.38
2023-10-23T06:44:30.203Z,100296.78
2023-10-23T06:46:57.707Z,100308.63
2023-10-23T06:49:25.831Z,100307.75
2023-10-23T06:51:53.837Z,100304.69
2023-10-23T06:54:23.750Z,100309.50
2023-10-23T06:56:51.512Z,100315.25
2023-10-23T06:59:19.251Z,100319.06
2023-10-23T07:01:46.757Z,100310.72
2023-10-23T07:04:14.516Z,100317.25
2023-10-23T07:06:42.184Z,100302.00
2023-10-23T07:09:09.801Z,100311.56
2023-10-23T07:11:38.748Z,100310.78
2023-10-23T07:14:06.359Z,100303.75
2023-10-23T07:16:33.930Z,100300.84
2023-10-23T07:19:04.747Z,100318.25
2023-10-23T07:21:32.336Z,100310.13
2023-10-23T07:24:00.121Z,100310.50
2023-10-23T07:26:27.712Z,100316.72
2023-10-23T07:28:56.585Z,100314.81
2023-10-23T07:31:24.107Z,100315.38
2023-10-23T07:33:51.762Z,100320.44
2023-10-23T07:36:19.510Z,100315.22
2023-10-23T07:38:47.837Z,100308.91
2023-10-23T07:41:15.563Z,100319.38
2023-10-23T07:43:44.130Z,100316.91
2023-10-23T07:46:17.533Z,100324.88
2023-10-23T07:48:46.790Z,100316.22
2023-10-23T07:51:14.969Z,100321.91
2023-10-23T07:53:42.808Z,100323.63
2023-10-23T07:56:10.372Z,100330.50
2023-10-23T07:58:38.015Z,100322.72
2023-10-23T08:01:07.174Z,100316.28
2023-10-23T08:03:36.870Z,100326.31
2023-10-23T08:06:05.578Z,100330.38
2023-10-23T08:08:35.138Z,100324.69
2023-10-23T08:11:04.243Z,100311.38
2023-10-23T08:13:31.970Z,100321.41
2023-10-23T08:16:01.407Z,100314.47
2023-10-23T08:21:01.074Z,100312.00
2023-10-23T08:23:28.599Z,100312.97
2023-10-23T08:25:56.777Z,100316.25
2023-10-23T08:28:24.387Z,100310.72
2023-10-23T08:30:51.940Z,100319.59
2023-10-23T08:33:19.609Z,100315.88
2023-10-23T08:35:47.191Z,100312.97
2023-10-23T08:38:16.042Z,100308.47
2023-10-23T08:40:44.055Z,100317.06
2023-10-23T08:43:11.818Z,100304.59
2023-10-23T08:45:40.815Z,100299.28
2023-10-23T08:48:08.364Z,100307.38
2023-10-23T08:50:37.259Z,100302.47
2023-10-23T08:53:09.338Z,100304.16
2023-10-23T08:55:38.830Z,100299.53
2023-10-23T08:58:07.375Z,100300.41
2023-10-23T09:00:35.521Z,100299.28
2023-10-23T09:03:06.852Z,100308.69
2023-10-23T09:05:34.524Z,100307.53
2023-10-23T09:08:02.985Z,100301.19
2023-10-23T09:10:30.513Z,100299.38
2023-10-23T09:12:59.411Z,100299.13
2023-10-23T09:15:26.944Z,100303.59
2023-10-23T09:17:54.776Z,100291.22
2023-10-23T09:20:27.604Z,100310.31
2023-10-23T09:22:57.781Z,100292.44
2023-10-23T09:25:26.223Z,100285.09
2023-10-23T09:27:54.265Z,100284.28
2023-10-23T09:30:23.550Z,100286.34
2023-10-23T09:32:54.383Z,100285.19
2023-10-23T09:35:24.018Z,100289.72
2023-10-23T09:37:51.627Z,100284.38
2023-10-23T09:40:19.856Z,100286.44
2023-10-23T09:42:47.543Z,100293.72
2023-10-23T09:45:16.346Z,100286.44
2023-10-23T09:47:47.651Z,100284.75
2023-10-23T09:50:15.816Z,100286.63
2023-10-23T09:52:45.887Z,100286.59
2023-10-23T09:55:14.830Z,100280.38
2023-10-23T09:57:47.337Z,100280.59
2023-10-23T10:00:15.773Z,100280.31
2023-10-23T10:02:50.045Z,100282.19
2023-10-23T10:05:20.012Z,100281.53
2023-10-23T10:07:53.516Z,100272.22
2023-10-23T10:10:23.853Z,100283.00
2023-10-23T10:12:52.006Z,100280.94
2023-10-23T10:15:20.896Z,100275.16
2023-10-23T10:17:51.441Z,100278.00
2023-10-23T10:20:21.615Z,100280.53
2023-10-23T10:22:58.523Z,100284.63
2023-10-23T10:25:28.686Z,100274.09
2023-10-23T10:28:00.230Z,100279.94
2023-10-23T10:30:43.433Z,100269.06
2023-10-23T10:34:22.767Z,100267.03
2023-10-23T10:36:07.474Z,100259.81
2023-10-23T10:38:36.951Z,100253.28
2023-10-23T10:41:05.715Z,100256.91
2023-10-23T10:43:34.668Z,100244.41
2023-10-23T10:46:05.856Z,100244.34
2023-10-23T10:48:44.858Z,100244.91
2023-10-23T10:51:15.559Z,100236.44
2023-10-23T10:53:43.379Z,100222.59
2023-10-23T10:56:11.162Z,100216.91
2023-10-23T10:58:39.789Z,100219.72
2023-10-23T11:01:09.158Z,100212.41
2023-10-23T11:03:37.907Z,100212.28
2023-10-23T11:06:08.126Z,100207.16
2023-10-23T11:08:36.104Z,100212.03
2023-10-23T11:11:05.755Z,100210.47
2023-10-23T11:13:33.497Z,100206.06
2023-10-23T11:16:02.175Z,100191.34
2023-10-23T11:18:30.267Z,100197.22
2023-10-23T11:20:58.587Z,100200.88
2023-10-23T11:23:27.736Z,100201.38
2023-10-23T11:25:56.777Z,100201.75
2023-10-23T11:28:25.162Z,100195.59
2023-10-23T11:30:56.836Z,100188.09
2023-10-23T11:33:24.638Z,100198.19
2023-10-23T11:35:54.167Z,100205.28
2023-10-23T11:38:24.063Z,100191.69
2023-10-23T11:40:54.343Z,100191.22
2023-10-23T11:43:22.300Z,100193.22
2023-10-23T11:45:50.245Z,100192.69
2023-10-23T11:48:17.871Z,100200.66
2023-10-23T11:50:46.510Z,100200.66
2023-10-23T11:53:17.375Z,100205.31
2023-10-23T11:55:47.566Z,100202.06
2023-10-23T11:58:16.435Z,100216.19
2023-10-23T12:00:44.034Z,100199.84
2023-10-23T12:03:11.816Z,100199.53
2023-10-23T12:05:39.445Z,100194.41
2023-10-23T12:08:06.980Z,100204.97
2023-10-23T12:10:39.068Z,100196.28
2023-10-23T12:13:07.137Z,100206.78
2023-10-23T12:15:36.025Z,100201.09
2023-10-23T12:18:05.445Z,100192.31
2023-10-23T12:20:33.858Z,100192.88
2023-10-23T12:23:01.415Z,100185.13
2023-10-23T12:25:29.015Z,100190.66
2023-10-23T12:27:56.681Z,100195.31
2023-10-23T12:30:28.979Z,100186.88
2023-10-23T12:33:16.316Z,100185.63
2023-10-23T12:35:46.040Z,100179.69
2023-10-23T12:38:13.779Z,100184.47
2023-10-23T12:40:42.620Z,100170.56
2023-10-23T12:43:10.564Z,100174.41
2023-10-23T12:45:38.116Z,100177.41
2023-10-23T12:48:07.318Z,100170.31
2023-10-23T12:50:34.931Z,100171.63
2023-10-23T12:53:02.759Z,100174.06
2023-10-23T12:55:30.296Z,100163.97
2023-10-23T12:57:57.912Z,100169.19
2023-10-23T13:00:26.356Z,100162.75
2023-10-23T13:02:53.974Z,100165.56
2023-10-23T13:05:22.952Z,100158.69
2023-10-23T13:07:50.612Z,100154.25
2023-10-23T13:10:18.272Z,100153.84
2023-10-23T13:12:45.794Z,100152.25
2023-10-23T13:15:13.393Z,100151.38
2023-10-23T13:17:41.034Z,100144.91
2023-10-23T13:21:27.801Z,100145.75
2023-10-23T13:23:00.240Z,100143.34
2023-10-23T13:25:27.851Z,100137.28
2023-10-23T13:27:56.896Z,100133.59
2023-10-23T13:30:24.561Z,100129.63
2023-10-23T13:32:52.811Z,100125.97
2023-10-23T13:35:20.985Z,100125.50
2023-10-23T13:37:48.508Z,100119.06
2023-10-23T13:40:17.453Z,100127.59
2023-10-23T13:42:45.531Z,100119.94
2023-10-23T13:45:15.167Z,100122.75
2023-10-23T13:47:44.946Z,100119.50
2023-10-23T13:50:12.738Z,100118.69
2023-10-23T13:52:42.070Z,100119.47
2023-10-23T13:55:11.537Z,100121.88
2023-10-23T13:57:40.695Z,100122.22
2023-10-23T14:00:11.063Z,100114.56
2023-10-23T14:02:38.941Z,100107.94
2023-10-23T14:05:07.689Z,100106.84
2023-10-23T14:07:35.284Z,100114.91
2023-10-23T14:10:03.562Z,100116.03
2023-10-23T14:12:31.148Z,100103.16
2023-10-23T14:14:59.986Z,100108.41
2023-10-23T14:17:27.499Z,100101.91
2023-10-23T14:19:55.036Z,100110.34
2023-10-23T14:22:22.713Z,100098.28
2023-10-23T14:24:50.442Z,100093.44
2023-10-23T14:27:18.114Z,100080.66
2023-10-23T14:29:45.743Z,100083.25
2023-10-23T14:32:15.100Z,100090.53
2023-10-23T14:34:42.651Z,100087.25
2023-10-23T14:37:10.261Z,100081.53
2023-10-23T14:39:38.005Z,100082.81
2023-10-23T14:42:06.461Z,100079.91
2023-10-23T14:44:35.899Z,100075.53
2023-10-23T14:47:03.578Z,100074.69
2023-10-23T14:49:32.853Z,100075.13
2023-10-23T14:52:00.502Z,100068.19
2023-10-23T14:54:28.062Z,100069.34
2023-10-23T14:56:55.585Z,100065.34
2023-10-23T14:59:23.651Z,100064.94
2023-10-23T15:01:51.804Z,100054.47
2023-10-23T15:04:19.510Z,100054.44
2023-10-23T15:06:48.368Z,100048.75
2023-10-23T15:09:15.967Z,100050.75
2023-10-23T15:11:43.605Z,100050.75
2023-10-23T15:14:11.305Z,100053.88
2023-10-23T15:16:39.770Z,100060.72
2023-10-23T15:19:07.343Z,100049.03
2023-10-23T15:21:34.898Z,100048.13
2023-10-23T15:24:03.943Z,100043.16
2023-10-23T15:26:31.452Z,100038.41
2023-10-23T15:28:58.915Z,100036.69
2023-10-23T15:31:27.145Z,100044.91
2023-10-23T15:33:54.886Z,100054.78
2023-10-23T15:36:22.459Z,100048.38
2023-10-23T15:38:51.767Z,100052.41
2023-10-23T15:41:20.718Z,100053.91
2023-10-23T15:43:52.387Z,100044.06
2023-10-23T15:46:20.353Z,100046.31
2023-10-23T15:48:47.922Z,100044.66
2023-10-23T15:51:17.741Z,100047.22
2023-10-23T15:53:45.220Z,100061.69
2023-10-23T15:56:12.768Z,100049.16
2023-10-23T15:58:41.957Z,100049.53
2023-10-23T16:01:10.218Z,100054.28
2023-10-23T16:03:38.039Z,100042.63
2023-10-23T16:06:09.206Z,100038.47
2023-10-23T16:08:37.773Z,100036.38
2023-10-23T16:11:05.952Z,100039.81
2023-10-23T16:13:37.981Z,100032.88
2023-10-23T16:16:14.361Z,100032.34
2023-10-23T16:18:44.800Z,100036.00
2023-10-23T16:21:14.741Z,100043.88
2023-10-23T16:23:42.426Z,100027.63
2023-10-23T16:26:09.962Z,100029.94
2023-10-23T16:28:37.586Z,100024.75
2023-10-23T16:31:05.298Z,100024.94
2023-10-23T16:33:34.184Z,100020.41
2023-10-23T16:36:01.782Z,100025.81
2023-10-23T16:38:29.490Z,100022.41
2023-10-23T16:40:57.077Z,100012.91
2023-10-23T16:43:25.077Z,100009.03
2023-10-23T16:45:52.648Z,100013.81
2023-10-23T16:48:20.220Z,100006.63
2023-10-23T16:50:49.059Z,100012.91
2023-10-23T16:53:18.313Z,100004.25
2023-10-23T16:55:52.538Z,100009.03
2023-10-23T16:58:24.244Z,100009.19
2023-10-23T17:00:52.130Z,100007.22
2023-10-23T17:03:19.820Z,100006.34
2023-10-23T17:05:48.708Z,100006.44
2023-10-23T17:08:16.197Z,100006.91
2023-10-23T17:10:43.663Z,100001.13
2023-10-23T17:13:11.824Z,99999.72
2023-10-23T17:15:43.341Z,99998.56
2023-10-23T17:18:10.965Z,99997.63
2023-10-23T17:20:42.512Z,100000.38
2023-10-23T17:23:11.359Z,100013.59
2023-10-23T17:25:41.384Z,100003.88
2023-10-23T17:28:09.691Z,100002.88
2023-10-23T17:30:38.277Z,99992.88
2023-10-23T17:33:07.363Z,100005.56
2023-10-23T17:35:35.252Z,100007.09
2023-10-23T17:38:03.325Z,99995.78
2023-10-23T17:40:37.015Z,99997.22
2023-10-23T17:43:04.714Z,99995.84
2023-10-23T17:45:33.994Z,99992.25
2023-10-23T17:48:03.177Z,99993.28
2023-10-23T17:50:33.449Z,99984.88
2023-10-23T17:53:01.348Z,99987.50
2023-10-23T17:55:29.148Z,99983.41
2023-10-23T17:57:58.338Z,99983.09
2023-10-23T18:00:26.639Z,99982.28
2023-10-23T18:02:54.444Z,99979.03
2023-10-23T18:05:22.349Z,99978.09
2023-10-23T18:07:53.615Z,99980.59
2023-10-23T18:10:21.791Z,99982.72
2023-10-23T18:12:49.909Z,99977.97
2023-10-23T18:15:19.639Z,99983.94
2023-10-23T18:17:48.764Z,99976.25
2023-10-23T18:20:16.657Z,99973.72
2023-10-23T18:22:44.422Z,99976.84
2023-10-23T18:25:12.288Z,99970.59
2023-10-23T18:27:40.717Z,99968.31
2023-10-23T18:30:09.303Z,99975.63
2023-10-23T18:32:38.160Z,99973.66
2023-10-23T18:35:08.558Z,99978.78
2023-10-23T18:37:36.418Z,99973.16
2023-10-23T18:40:05.418Z,99973.72
2023-10-23T18:42:35.289Z,99973.63
2023-10-23T18:45:05.154Z,99966.41
2023-10-23T18:47:33.356Z,99958.84
2023-10-23T18:50:04.757Z,99959.63
2023-10-23T18:52:32.725Z,99954.91
2023-10-23T18:55:00.704Z,99956.91
2023-10-23T18:57:28.348Z,99960.13
2023-10-23T18:59:56.703Z,99953.25
2023-10-23T19:02:24.269Z,99960.13
2023-10-23T19:04:51.838Z,99972.28
2023-10-23T19:07:21.509Z,99966.59
2023-10-23T19:09:49.037Z,99970.13
2023-10-23T19:12:17.199Z,99962.97
2023-10-23T19:14:44.717Z,99961.88
2023-10-23T19:17:18.903Z,99968.66
2023-10-23T19:19:52.653Z,99960.22
2023-10-23T19:22:21.547Z,99961.94
2023-10-23T19:24:49.655Z,99959.59
2023-10-23T19:27:17.702Z,99967.28
2023-10-23T19:29:45.209Z,99965.13
2023-10-23T19:32:13.939Z,99953.56
2023-10-23T19:34:42.680Z,99943.63
2023-10-23T19:37:10.774Z,99945.66
2023-10-23T19:39:40.551Z,99942.69
2023-10-23T19:42:12.463Z,99936.28
2023-10-23T19:44:40.421Z,99940.06
2023-10-23T19:47:08.966Z,99940.50
2023-10-23T19:49:37.187Z,99935.78
2023-10-23T19:52:10.768Z,99936.22
2023-10-23T19:54:49.662Z,99927.44
2023-10-23T19:57:19.067Z,99933.69
2023-10-23T19:59:46.659Z,99942.69
2023-10-23T20:02:14.241Z,99937.28
2023-10-23T20:04:41.927Z,99930.72
2023-10-23T20:07:09.484Z,99931.13
2023-10-23T20:09:37.789Z,99927.31
2023-10-23T20:12:07.207Z,99927.66
2023-10-23T20:14:34.821Z,99922.34
2023-10-23T20:17:02.407Z,99923.91
2023-10-23T20:19:30.764Z,99918.69
2023-10-23T20:21:59.418Z,99913.69
2023-10-23T20:24:27.084Z,99907.66
2023-10-23T20:26:54.602Z,99903.78
2023-10-23T20:29:23.649Z,99903.84
2023-10-23T20:31:51.801Z,99904.56
2023-10-23T20:34:19.352Z,99900.69
2023-10-23T20:36:47.264Z,99904.31
2023-10-23T20:39:15.134Z,99896.44
2023-10-23T20:41:42.646Z,99897.97
2023-10-23T20:44:10.114Z,99899.44
2023-10-23T20:46:38.988Z,99898.16
2023-10-23T20:49:06.939Z,99905.56
2023-10-23T20:51:34.472Z,99911.41
2023-10-23T20:54:01.989Z,99910.03
2023-10-23T20:56:29.695Z,99909.06
2023-10-23T20:58:57.231Z,99897.25
2023-10-23T21:01:24.875Z,99893.59
2023-10-23T21:03:53.813Z,99889.47
2023-10-23T21:06:22.660Z,99886.53
2023-10-23T21:08:50.117Z,99888.25
2023-10-23T21:11:17.620Z,99882.41
2023-10-23T21:13:47.418Z,99877.16
2023-10-23T21:16:15.153Z,99874.09
2023-10-23T21:18:42.724Z,99870.41
2023-10-23T21:21:11.564Z,99865.59
2023-10-23T21:23:39.079Z,99872.88
2023-10-23T21:26:07.492Z,99861.84
2023-10-23T21:28:35.171Z,99859.94
2023-10-23T21:31:02.840Z,99856.44
2023-10-23T21:33:30.600Z,99846.00
2023-10-23T21:35:58.684Z,99842.63
2023-10-23T21:38:27.882Z,99839.31
2023-10-23T21:40:55.697Z,99841.94
2023-10-23T21:43:23.288Z,99824.34
2023-10-23T21:46:01.888Z,99828.63
2023-10-23T21:48:39.169Z,99835.25
2023-10-23T21:51:07.271Z,99825.16
2023-10-23T21:53:37.042Z,99820.81
2023-10-23T21:56:05.324Z,99816.09
2023-10-23T21:59:02.499Z,99813.72
2023-10-23T22:01:23.031Z,99807.59
2023-10-23T22:03:51.262Z,99810.66
2023-10-23T22:06:19.297Z,99796.78
2023-10-23T22:08:48.893Z,99790.88
2023-10-23T22:11:17.198Z,99798.41
2023-10-23T22:13:45.173Z,99802.47
2023-10-23T22:16:12.861Z,99799.31
2023-10-23T22:18:40.660Z,99788.44
2023-10-23T22:21:08.161Z,99783.66
2023-10-23T22:23:35.685Z,99792.53
2023-10-23T22:26:04.545Z,99788.34
2023-10-23T22:28:32.153Z,99783.22
2023-10-23T22:30:59.724Z,99775.50
2023-10-23T22:33:27.689Z,99775.16
2023-10-23T22:35:55.308Z,99777.47
2023-10-23T22:38:22.808Z,99773.25
2023-10-23T22:40:52.172Z,99768.81
2023-10-23T22:43:21.043Z,99767.50
2023-10-23T22:46:01.630Z,99765.88
2023-10-23T22:48:30.348Z,99757.19
2023-10-23T22:50:58.320Z,99752.78
2023-10-23T22:53:26.294Z,99762.06
2023-10-23T22:55:56.569Z,99753.59
2023-10-23T22:58:30.999Z,99743.78
2023-10-23T23:00:59.254Z,99733.91
2023-10-23T23:03:27.556Z,99740.91
2023-10-23T23:05:59.305Z,99741.13
2023-10-23T23:08:30.769Z,99735.94
2023-10-23T23:10:58.876Z,99742.28
2023-10-23T23:13:28.355Z,99759.19
2023-10-23T23:16:02.512Z,99756.75
2023-10-23T23:18:31.419Z,99747.47
2023-10-23T23:21:04.255Z,99737.59
2023-10-23T23:23:31.786Z,99754.00
2023-10-23T23:25:59.258Z,99729.84
2023-10-23T23:28:28.149Z,99734.56
2023-10-23T23:30:55.709Z,99732.16
2023-10-23T23:33:23.236Z,99740.16
2023-10-23T23:35:53.641Z,99739.88
2023-10-23T23:38:21.133Z,99735.69
2023-10-23T23:40:48.667Z,99733.63
2023-10-23T23:43:16.491Z,99722.94
2023-10-23T23:45:45.738Z,99729.81
2023-10-23T23:48:13.254Z,99737.69
2023-10-23T23:50:41.147Z,99736.59
2023-10-23T23:53:08.640Z,99747.53
2023-10-23T23:55:36.157Z,99747.75
2023-10-23T23:58:03.654Z,99753.69
